createdAt,value
2023-05-20T00:01:18.758Z,18.24
2023-05-20T00:03:46.706Z,18.20
2023-05-20T00:06:13.990Z,18.15
2023-05-20T00:08:41.125Z,18.10
2023-05-20T00:11:08.189Z,18.07
2023-05-20T00:13:36.324Z,18.05
2023-05-20T00:16:03.448Z,18.04
2023-05-20T00:18:30.985Z,18.03
2023-05-20T00:20:58.081Z,18.04
2023-05-20T00:23:25.076Z,18.07
2023-05-20T00:25:52.107Z,18.08
2023-05-20T00:28:20.068Z,18.08
2023-05-20T00:30:47.316Z,18.09
2023-05-20T00:33:14.416Z,18.11
2023-05-20T00:35:41.483Z,18.13
2023-05-20T00:38:08.522Z,18.16
2023-05-20T00:40:35.646Z,18.17
2023-05-20T00:43:03.318Z,18.20
2023-05-20T00:45:31.424Z,18.23
2023-05-20T00:48:01.774Z,18.26
2023-05-20T00:50:29.023Z,18.30
2023-05-20T00:52:56.414Z,18.33
2023-05-20T00:55:23.468Z,18.36
2023-05-20T00:57:53.209Z,18.39
2023-05-20T01:00:20.400Z,18.41
2023-05-20T01:02:48.150Z,18.42
2023-05-20T01:05:16.698Z,18.44
2023-05-20T01:07:44.213Z,18.44
2023-05-20T01:10:11.773Z,18.44
2023-05-20T01:12:54.667Z,18.44
2023-05-20T01:15:22.701Z,18.44
2023-05-20T01:17:53.124Z,18.44
2023-05-20T01:20:20.901Z,18.44
2023-05-20T01:22:48.880Z,18.44
2023-05-20T01:25:16.087Z,18.42
2023-05-20T01:27:44.207Z,18.42
2023-05-20T01:30:11.631Z,18.40
2023-05-20T01:32:40.758Z,18.40
2023-05-20T01:35:08.620Z,18.44
2023-05-20T01:37:40.367Z,18.45
2023-05-20T01:40:09.035Z,18.46
2023-05-20T01:42:36.266Z,18.47
2023-05-20T01:45:06.308Z,18.46
2023-05-20T01:47:33.459Z,18.44
2023-05-20T01:50:00.692Z,18.42
2023-05-20T01:52:27.882Z,18.38
2023-05-20T01:54:54.901Z,18.36
2023-05-20T01:57:22.349Z,18.36
2023-05-20T01:59:50.234Z,18.37
2023-05-20T02:02:17.536Z,18.36
2023-05-20T02:04:49.137Z,18.35
2023-05-20T02:07:16.716Z,18.36
2023-05-20T02:09:43.776Z,18.36
2023-05-20T02:12:16.483Z,18.33
2023-05-20T02:14:47.872Z,18.31
2023-05-20T02:17:18.131Z,18.32
2023-05-20T02:19:46.036Z,18.30
2023-05-20T02:22:13.993Z,18.26
2023-05-20T02:24:41.852Z,18.24
2023-05-20T02:27:09.644Z,18.25
2023-05-20T02:29:39.301Z,18.22
2023-05-20T02:32:06.821Z,18.22
2023-05-20T02:34:33.969Z,18.21
2023-05-20T02:37:01.579Z,18.21
2023-05-20T02:39:29.445Z,18.20
2023-05-20T02:41:56.632Z,18.20
2023-05-20T02:44:24.162Z,18.21
2023-05-20T02:46:51.574Z,18.21
2023-05-20T02:49:18.625Z,18.21
2023-05-20T02:51:45.849Z,18.20
2023-05-20T02:54:12.886Z,18.21
2023-05-20T02:56:39.944Z,18.22
2023-05-20T02:59:07.632Z,18.24
2023-05-20T03:01:36.247Z,18.26
2023-05-20T03:04:03.627Z,18.27
2023-05-20T03:06:32.182Z,18.29
2023-05-20T03:08:59.694Z,18.33
2023-05-20T03:11:26.907Z,18.35
2023-05-20T03:13:53.963Z,18.37
2023-05-20T03:16:21.102Z,18.40
2023-05-20T03:18:48.970Z,18.43
2023-05-20T03:21:17.317Z,18.48
2023-05-20T03:23:44.407Z,18.54
2023-05-20T03:26:11.766Z,18.60
2023-05-20T03:28:39.691Z,18.64
2023-05-20T03:31:07.487Z,18.69
2023-05-20T03:33:35.736Z,18.76
2023-05-20T03:36:02.982Z,18.83
2023-05-20T03:38:30.893Z,18.89
2023-05-20T03:40:58.034Z,18.92
2023-05-20T03:43:25.766Z,18.96
2023-05-20T03:45:52.804Z,19.01
2023-05-20T03:48:20.455Z,19.03
2023-05-20T03:50:49.543Z,19.02
2023-05-20T03:53:17.646Z,19.00
2023-05-20T03:55:44.716Z,19.02
2023-05-20T03:58:13.811Z,19.05
2023-05-20T04:00:41.390Z,19.07
2023-05-20T04:03:09.002Z,19.12
2023-05-20T04:05:37.176Z,19.12
2023-05-20T04:08:07.478Z,19.08
2023-05-20T04:10:34.891Z,19.07
2023-05-20T04:13:02.221Z,19.06
2023-05-20T04:15:30.012Z,19.08
2023-05-20T04:17:58.138Z,19.10
2023-05-20T04:20:25.505Z,19.10
2023-05-20T04:22:55.430Z,19.08
2023-05-20T04:25:22.617Z,19.03
2023-05-20T04:27:50.347Z,19.03
2023-05-20T04:30:18.746Z,19.07
2023-05-20T04:32:45.949Z,19.11
2023-05-20T04:35:14.119Z,19.22
2023-05-20T04:37:54.219Z,19.28
2023-05-20T04:40:21.833Z,19.31
2023-05-20T04:42:49.104Z,19.35
2023-05-20T04:45:16.138Z,19.40
2023-05-20T04:47:44.602Z,19.44
2023-05-20T04:50:11.973Z,19.49
2023-05-20T04:52:42.076Z,19.51
2023-05-20T04:55:10.479Z,19.58
2023-05-20T04:57:40.342Z,19.68
2023-05-20T05:00:11.831Z,19.71
2023-05-20T05:02:39.831Z,19.77
2023-05-20T05:05:07.636Z,19.85
2023-05-20T05:07:34.896Z,19.95
2023-05-20T05:10:01.970Z,19.95
2023-05-20T05:12:30.564Z,19.89
2023-05-20T05:14:58.987Z,19.86
2023-05-20T05:17:26.451Z,19.85
2023-05-20T05:19:53.467Z,19.86
2023-05-20T05:22:20.819Z,19.92
2023-05-20T05:24:49.379Z,19.95
2023-05-20T05:27:16.427Z,19.98
2023-05-20T05:29:43.398Z,19.99
2023-05-20T05:32:11.686Z,20.00
2023-05-20T05:34:39.289Z,20.03
2023-05-20T05:37:06.448Z,20.07
2023-05-20T05:39:34.892Z,20.13
2023-05-20T05:42:02.019Z,20.17
2023-05-20T05:44:29.153Z,20.20
2023-05-20T05:46:57.829Z,20.29
2023-05-20T05:49:24.935Z,20.33
2023-05-20T05:51:52.546Z,20.32
2023-05-20T05:54:22.164Z,20.33
2023-05-20T05:56:51.575Z,20.39
2023-05-20T05:59:19.481Z,20.45
2023-05-20T06:01:46.571Z,20.55
2023-05-20T06:04:15.294Z,20.65
2023-05-20T06:06:42.443Z,20.75
2023-05-20T06:09:09.595Z,20.85
2023-05-20T06:11:36.802Z,20.90
2023-05-20T06:14:03.840Z,20.92
2023-05-20T06:16:31.428Z,20.93
2023-05-20T06:19:02.659Z,21.03
2023-05-20T06:21:32.811Z,21.22
2023-05-20T06:24:01.034Z,21.36
2023-05-20T06:26:28.085Z,21.45
2023-05-20T06:28:56.581Z,21.56
2023-05-20T06:31:23.788Z,21.70
2023-05-20T06:33:51.754Z,21.79
2023-05-20T06:36:18.906Z,21.86
2023-05-20T06:38:46.781Z,21.97
2023-05-20T06:41:15.270Z,22.03
2023-05-20T06:43:42.408Z,22.01
2023-05-20T06:46:38.828Z,21.98
2023-05-20T06:49:09.805Z,22.03
2023-05-20T06:51:36.919Z,22.02
2023-05-20T06:54:04.435Z,22.04
2023-05-20T06:56:31.488Z,22.13
2023-05-20T06:58:59.366Z,22.20
2023-05-20T07:01:26.624Z,22.21
2023-05-20T07:03:53.838Z,22.29
2023-05-20T07:06:21.038Z,22.39
2023-05-20T07:08:48.336Z,22.46
2023-05-20T07:11:15.871Z,22.59
2023-05-20T07:13:43.013Z,22.74
2023-05-20T07:16:10.182Z,22.78
2023-05-20T07:18:39.884Z,22.70
2023-05-20T07:21:06.977Z,22.63
2023-05-20T07:24:00.035Z,22.58
2023-05-20T07:26:27.330Z,22.50
2023-05-20T07:28:55.028Z,22.48
2023-05-20T07:31:24.409Z,22.53
2023-05-20T07:33:51.636Z,22.58
2023-05-20T07:36:18.646Z,22.62
2023-05-20T07:39:00.985Z,22.73
2023-05-20T07:41:32.258Z,22.88
2023-05-20T07:43:59.626Z,22.95
2023-05-20T07:46:27.399Z,22.84
2023-05-20T07:48:54.511Z,22.76
2023-05-20T07:51:21.610Z,22.78
2023-05-20T07:53:48.834Z,22.78
2023-05-20T07:56:16.685Z,22.78
2023-05-20T07:58:43.756Z,22.77
2023-05-20T08:01:11.888Z,22.77
2023-05-20T08:03:39.023Z,22.82
2023-05-20T08:06:10.435Z,22.84
2023-05-20T08:08:37.945Z,22.89
2023-05-20T08:11:10.057Z,23.00
2023-05-20T08:13:39.079Z,23.07
2023-05-20T08:16:06.712Z,23.12
2023-05-20T08:18:38.127Z,23.10
2023-05-20T08:21:06.734Z,23.18
2023-05-20T08:23:36.802Z,23.32
2023-05-20T08:26:06.743Z,23.52
2023-05-20T08:28:34.253Z,23.60
2023-05-20T08:31:04.364Z,23.56
2023-05-20T08:33:31.876Z,23.57
2023-05-20T08:35:59.436Z,23.67
2023-05-20T08:38:28.334Z,23.75
2023-05-20T08:40:57.077Z,23.83
2023-05-20T08:43:25.193Z,23.85
2023-05-20T08:45:55.211Z,23.80
2023-05-20T08:48:25.992Z,23.85
2023-05-20T08:50:53.214Z,23.87
2023-05-20T08:53:21.327Z,23.96
2023-05-20T08:55:54.498Z,24.09
2023-05-20T08:58:23.638Z,24.18
2023-05-20T09:00:51.539Z,24.23
2023-05-20T09:03:20.497Z,24.26
2023-05-20T09:05:48.139Z,24.32
2023-05-20T09:08:16.427Z,24.39
2023-05-20T09:10:43.487Z,24.42
2023-05-20T09:13:11.026Z,24.46
2023-05-20T09:15:39.578Z,24.50
2023-05-20T09:18:07.730Z,24.54
2023-05-20T09:20:37.637Z,24.57
2023-05-20T09:23:06.595Z,24.65
2023-05-20T09:25:34.302Z,24.75
2023-05-20T09:28:01.575Z,24.86
2023-05-20T09:30:28.671Z,24.93
2023-05-20T09:32:56.733Z,24.99
2023-05-20T09:35:24.709Z,25.04
2023-05-20T09:37:58.518Z,25.10
2023-05-20T09:40:29.115Z,25.06
2023-05-20T09:43:08.941Z,25.09
2023-05-20T09:45:36.457Z,25.23
2023-05-20T09:48:04.245Z,25.38
2023-05-20T09:50:31.594Z,25.37
2023-05-20T09:53:02.962Z,25.32
2023-05-20T09:55:30.325Z,25.24
2023-05-20T09:57:57.426Z,25.17
2023-05-20T10:00:24.461Z,25.13
2023-05-20T10:02:52.500Z,25.03
2023-05-20T10:05:24.794Z,25.05
2023-05-20T10:07:56.878Z,25.20
2023-05-20T10:10:34.338Z,25.29
2023-05-20T10:13:30.922Z,25.37
2023-05-20T10:16:07.230Z,25.45
2023-05-20T10:19:07.508Z,25.36
2023-05-20T10:21:34.513Z,25.37
2023-05-20T10:24:11.156Z,25.46
2023-05-20T10:26:42.452Z,25.53
2023-05-20T10:29:19.001Z,25.47
2023-05-20T10:31:51.082Z,25.42
2023-05-20T10:34:22.350Z,25.42
2023-05-20T10:36:59.571Z,25.42
2023-05-20T10:39:28.922Z,25.43
2023-05-20T10:42:09.419Z,25.47
2023-05-20T10:44:44.302Z,25.48
2023-05-20T10:49:45.176Z,25.62
2023-05-20T10:52:13.600Z,25.71
2023-05-20T10:54:45.211Z,25.73
2023-05-20T10:57:12.464Z,25.64
2023-05-20T10:59:39.562Z,25.61
2023-05-20T11:02:06.609Z,25.67
2023-05-20T11:04:35.995Z,25.81
2023-05-20T11:07:03.301Z,26.01
2023-05-20T11:09:32.073Z,26.13
2023-05-20T11:11:59.136Z,26.20
2023-05-20T11:14:28.770Z,26.15
2023-05-20T11:16:59.527Z,26.12
2023-05-20T11:19:27.929Z,26.09
2023-05-20T11:21:55.234Z,26.13
2023-05-20T11:24:29.412Z,26.18
2023-05-20T11:26:57.684Z,26.18
2023-05-20T11:29:26.429Z,26.14
2023-05-20T11:31:53.585Z,26.08
2023-05-20T11:34:24.133Z,26.05
2023-05-20T11:36:57.453Z,26.04
2023-05-20T11:39:25.142Z,26.04
2023-05-20T11:41:52.310Z,26.02
2023-05-20T11:44:22.470Z,26.04
2023-05-20T11:46:49.526Z,26.04
2023-05-20T11:49:16.772Z,26.07
2023-05-20T11:51:44.055Z,26.17
2023-05-20T11:54:11.566Z,26.28
2023-05-20T11:56:39.034Z,26.30
2023-05-20T11:59:06.732Z,26.27
2023-05-20T12:01:40.960Z,26.29
2023-05-20T12:04:08.551Z,26.37
2023-05-20T12:06:37.585Z,26.38
2023-05-20T12:09:07.452Z,26.37
2023-05-20T12:11:39.968Z,26.35
2023-05-20T12:14:08.093Z,26.34
2023-05-20T12:16:37.275Z,26.39
2023-05-20T12:19:04.852Z,26.42
2023-05-20T12:21:32.194Z,26.37
2023-05-20T12:23:59.812Z,26.30
2023-05-20T12:26:28.010Z,26.23
2023-05-20T12:28:55.287Z,26.17
2023-05-20T12:31:23.839Z,26.15
2023-05-20T12:33:51.042Z,26.19
2023-05-20T12:36:19.970Z,26.27
2023-05-20T12:38:47.235Z,26.29
2023-05-20T12:41:14.270Z,26.24
2023-05-20T12:43:41.417Z,26.20
2023-05-20T12:46:08.499Z,26.15
2023-05-20T12:48:35.836Z,26.12
2023-05-20T12:51:03.142Z,26.15
2023-05-20T12:53:30.172Z,26.22
2023-05-20T12:55:57.213Z,26.29
2023-05-20T12:58:24.439Z,26.40
2023-05-20T13:00:51.536Z,26.50
2023-05-20T13:03:18.770Z,26.57
2023-05-20T13:05:46.112Z,26.61
2023-05-20T13:08:15.517Z,26.59
2023-05-20T13:10:43.071Z,26.57
2023-05-20T13:13:10.153Z,26.57
2023-05-20T13:15:37.214Z,26.59
2023-05-20T13:18:06.684Z,26.52
2023-05-20T13:20:34.321Z,26.43
2023-05-20T13:23:01.684Z,26.37
2023-05-20T13:25:29.457Z,26.34
2023-05-20T13:27:56.667Z,26.31
2023-05-20T13:30:23.751Z,26.31
2023-05-20T13:32:52.213Z,26.29
2023-05-20T13:35:19.329Z,26.35
2023-05-20T13:37:46.447Z,26.45
2023-05-20T13:40:13.555Z,26.51
2023-05-20T13:42:40.660Z,26.60
2023-05-20T13:45:08.229Z,26.73
2023-05-20T13:47:35.315Z,26.80
2023-05-20T13:50:03.401Z,26.82
2023-05-20T13:52:30.890Z,26.83
2023-05-20T13:54:57.917Z,26.82
2023-05-20T13:57:24.964Z,26.80
2023-05-20T13:59:51.937Z,26.76
2023-05-20T14:02:19.343Z,26.71
2023-05-20T14:04:47.367Z,26.74
2023-05-20T14:07:14.447Z,26.83
2023-05-20T14:09:41.509Z,26.97
2023-05-20T14:12:09.103Z,27.17
2023-05-20T14:14:36.304Z,27.44
2023-05-20T14:17:03.421Z,27.79
2023-05-20T14:19:31.060Z,28.17
2023-05-20T14:22:01.359Z,28.59
2023-05-20T14:24:28.581Z,29.02
2023-05-20T14:26:55.653Z,29.24
2023-05-20T14:29:22.685Z,29.30
2023-05-20T14:31:49.871Z,29.60
2023-05-20T14:34:16.947Z,30.03
2023-05-20T14:36:44.544Z,30.55
2023-05-20T14:39:11.531Z,30.94
2023-05-20T14:41:38.598Z,31.00
2023-05-20T14:44:05.911Z,30.94
2023-05-20T14:46:32.983Z,30.95
2023-05-20T14:49:00.428Z,31.02
2023-05-20T14:51:27.561Z,31.18
2023-05-20T14:53:54.615Z,31.22
2023-05-20T14:56:21.893Z,31.29
2023-05-20T14:58:48.848Z,31.36
2023-05-20T15:01:16.021Z,31.47
2023-05-20T15:03:43.152Z,31.71
2023-05-20T15:06:12.108Z,31.71
2023-05-20T15:08:39.148Z,31.49
2023-05-20T15:11:06.290Z,31.13
2023-05-20T15:13:33.287Z,30.78
2023-05-20T15:16:00.458Z,30.81
2023-05-20T15:18:27.538Z,31.01
2023-05-20T15:20:54.570Z,31.14
2023-05-20T15:23:21.649Z,31.20
2023-05-20T15:25:50.593Z,31.14
2023-05-20T15:28:19.912Z,30.98
2023-05-20T15:30:51.287Z,30.79
2023-05-20T15:33:18.378Z,30.59
2023-05-20T15:35:45.969Z,30.41
2023-05-20T15:38:13.798Z,30.41
2023-05-20T15:40:42.411Z,30.63
2023-05-20T15:43:09.503Z,30.94
2023-05-20T15:45:36.623Z,31.12
2023-05-20T15:48:03.854Z,31.06
2023-05-20T15:50:31.192Z,31.06
2023-05-20T15:52:58.259Z,31.10
2023-05-20T15:55:25.311Z,31.15
2023-05-20T15:57:52.395Z,31.32
2023-05-20T16:00:21.335Z,31.42
2023-05-20T16:02:48.710Z,31.46
2023-05-20T16:05:16.081Z,31.38
2023-05-20T16:07:43.143Z,31.26
2023-05-20T16:10:10.801Z,31.19
2023-05-20T16:12:37.955Z,31.11
2023-05-20T16:15:05.395Z,30.94
2023-05-20T16:17:32.480Z,30.57
2023-05-20T16:19:59.519Z,30.31
2023-05-20T16:22:26.598Z,30.20
2023-05-20T16:24:53.748Z,30.21
2023-05-20T16:27:20.799Z,30.14
2023-05-20T16:29:47.829Z,30.11
2023-05-20T16:32:14.986Z,29.98
2023-05-20T16:34:42.001Z,29.78
2023-05-20T16:37:10.312Z,29.57
2023-05-20T16:39:37.364Z,29.49
2023-05-20T16:42:04.579Z,29.48
2023-05-20T16:44:31.667Z,29.41
2023-05-20T16:46:58.707Z,29.37
2023-05-20T16:49:25.727Z,29.25
2023-05-20T16:51:52.929Z,29.04
2023-05-20T16:54:20.086Z,28.82
2023-05-20T16:56:49.800Z,28.49
2023-05-20T16:59:17.226Z,28.03
2023-05-20T17:01:44.700Z,27.65
2023-05-20T17:04:11.944Z,27.23
2023-05-20T17:06:39.995Z,26.76
2023-05-20T17:09:07.429Z,26.31
2023-05-20T17:11:34.639Z,25.89
2023-05-20T17:14:01.714Z,25.51
2023-05-20T17:16:28.991Z,25.15
2023-05-20T17:18:56.515Z,24.84
2023-05-20T17:21:23.607Z,24.60
2023-05-20T17:23:51.317Z,24.35
2023-05-20T17:26:18.381Z,24.11
2023-05-20T17:28:45.764Z,23.86
2023-05-20T17:31:14.037Z,23.64
2023-05-20T17:33:41.307Z,23.41
2023-05-20T17:36:08.390Z,23.18
2023-05-20T17:38:36.125Z,22.99
2023-05-20T17:41:03.144Z,22.83
2023-05-20T17:43:31.644Z,22.68
2023-05-20T17:45:58.748Z,22.52
2023-05-20T17:48:25.849Z,22.37
2023-05-20T17:50:52.897Z,22.22
2023-05-20T17:53:22.039Z,22.08
2023-05-20T17:55:49.622Z,21.93
2023-05-20T17:58:17.096Z,21.82
2023-05-20T18:00:44.297Z,21.71
2023-05-20T18:03:11.553Z,21.61
2023-05-20T18:05:38.661Z,21.50
2023-05-20T18:08:05.744Z,21.41
2023-05-20T18:10:33.218Z,21.33
2023-05-20T18:13:01.427Z,21.28
2023-05-20T18:15:28.548Z,21.28
2023-05-20T18:17:55.708Z,21.23
2023-05-20T18:20:22.931Z,21.14
2023-05-20T18:22:52.425Z,21.06
2023-05-20T18:25:19.404Z,20.99
2023-05-20T18:27:46.500Z,20.93
2023-05-20T18:30:13.538Z,20.86
2023-05-20T18:32:40.768Z,20.79
2023-05-20T18:35:08.310Z,20.70
2023-05-20T18:37:35.340Z,20.58
2023-05-20T18:40:02.473Z,20.57
2023-05-20T18:42:29.481Z,20.56
2023-05-20T18:44:56.707Z,20.50
2023-05-20T18:47:23.798Z,20.34
2023-05-20T18:49:51.061Z,20.27
2023-05-20T18:52:18.218Z,20.20
2023-05-20T18:54:45.187Z,20.13
2023-05-20T18:57:12.309Z,20.08
2023-05-20T18:59:39.346Z,20.04
2023-05-20T19:02:06.396Z,20.00
2023-05-20T19:04:33.382Z,19.97
2023-05-20T19:07:01.766Z,19.92
2023-05-20T19:09:28.767Z,19.86
2023-05-20T19:11:59.309Z,19.81
2023-05-20T19:14:26.462Z,19.78
2023-05-20T19:16:53.613Z,19.75
2023-05-20T19:19:20.811Z,19.81
2023-05-20T19:21:49.377Z,19.73
2023-05-20T19:24:17.890Z,19.62
2023-05-20T19:26:45.326Z,19.58
2023-05-20T19:29:12.360Z,19.55
2023-05-20T19:31:45.720Z,19.50
2023-05-20T19:34:13.126Z,19.47
2023-05-20T19:36:42.906Z,19.42
2023-05-20T19:39:10.210Z,19.38
2023-05-20T19:41:38.744Z,19.34
2023-05-20T19:44:06.443Z,19.30
2023-05-20T19:46:33.702Z,19.23
2023-05-20T19:49:02.278Z,19.16
2023-05-20T19:51:29.312Z,19.10
2023-05-20T19:53:57.683Z,19.05
2023-05-20T19:56:24.928Z,18.99
2023-05-20T19:58:52.114Z,18.92
2023-05-20T20:01:19.144Z,18.85
2023-05-20T20:03:46.270Z,18.81
2023-05-20T20:06:16.267Z,18.77
2023-05-20T20:08:46.208Z,18.71
2023-05-20T20:11:13.363Z,18.67
2023-05-20T20:13:40.372Z,18.62
2023-05-20T20:16:07.994Z,18.58
2023-05-20T20:18:36.272Z,18.52
2023-05-20T20:21:06.493Z,18.49
2023-05-20T20:23:36.995Z,18.46
2023-05-20T20:26:05.921Z,18.44
2023-05-20T20:28:32.940Z,18.40
2023-05-20T20:30:59.972Z,18.37
2023-05-20T20:33:27.888Z,18.33
2023-05-20T20:35:57.076Z,18.29
2023-05-20T20:38:24.270Z,18.26
2023-05-20T20:40:54.111Z,18.24
2023-05-20T20:43:23.020Z,18.16
2023-05-20T20:45:53.337Z,18.10
2023-05-20T20:48:20.434Z,18.06
2023-05-20T20:50:48.340Z,18.02
2023-05-20T20:53:18.450Z,18.01
2023-05-20T20:55:48.549Z,17.97
2023-05-20T20:58:15.800Z,17.94
2023-05-20T21:00:44.835Z,17.89
2023-05-20T21:03:13.239Z,17.85
2023-05-20T21:05:40.505Z,17.81
2023-05-20T21:08:08.658Z,17.77
2023-05-20T21:10:37.382Z,17.73
2023-05-20T21:13:04.584Z,17.68
2023-05-20T21:15:31.605Z,17.65
2023-05-20T21:17:58.778Z,17.61
2023-05-20T21:20:25.850Z,17.62
2023-05-20T21:22:52.948Z,17.62
2023-05-20T21:25:20.058Z,17.57
2023-05-20T21:27:47.143Z,17.51
2023-05-20T21:30:16.049Z,17.47
2023-05-20T21:32:43.314Z,17.42
2023-05-20T21:35:10.430Z,17.34
2023-05-20T21:37:37.504Z,17.27
2023-05-20T21:40:05.023Z,17.23
2023-05-20T21:42:33.049Z,17.16
2023-05-20T21:45:00.258Z,17.12
2023-05-20T21:47:27.377Z,17.05
2023-05-20T21:49:54.498Z,17.00
2023-05-20T21:52:21.497Z,16.95
2023-05-20T21:54:48.659Z,16.91
2023-05-20T21:57:15.728Z,16.82
2023-05-20T21:59:42.791Z,16.79
2023-05-20T22:02:09.862Z,16.74
2023-05-20T22:04:37.487Z,16.70
2023-05-20T22:07:04.681Z,16.64
2023-05-20T22:09:31.808Z,16.56
2023-05-20T22:12:00.180Z,16.50
2023-05-20T22:14:27.633Z,16.44
2023-05-20T22:16:55.784Z,16.37
2023-05-20T22:19:22.823Z,16.33
2023-05-20T22:21:51.184Z,16.26
2023-05-20T22:24:18.391Z,16.20
2023-05-20T22:26:45.530Z,16.15
2023-05-20T22:29:12.554Z,16.12
2023-05-20T22:31:39.861Z,16.09
2023-05-20T22:34:06.949Z,16.07
2023-05-20T22:36:34.369Z,16.06
2023-05-20T22:39:02.397Z,16.04
2023-05-20T22:41:29.511Z,16.02
2023-05-20T22:43:57.515Z,16.00
2023-05-20T22:46:25.317Z,15.98
2023-05-20T22:48:53.278Z,15.98
2023-05-20T22:51:24.842Z,15.95
2023-05-20T22:53:52.148Z,15.92
2023-05-20T22:56:19.497Z,15.89
2023-05-20T22:58:46.626Z,15.87
2023-05-20T23:01:16.927Z,15.84
2023-05-20T23:03:47.024Z,15.82
2023-05-20T23:06:14.159Z,15.77
2023-05-20T23:08:45.377Z,15.74
2023-05-20T23:11:12.396Z,15.70
2023-05-20T23:13:39.450Z,15.68
2023-05-20T23:16:06.672Z,15.64
2023-05-20T23:18:33.806Z,15.60
2023-05-20T23:21:00.913Z,15.56
2023-05-20T23:23:31.700Z,15.52
2023-05-20T23:25:59.768Z,15.46
2023-05-20T23:28:26.893Z,15.41
2023-05-20T23:30:54.828Z,15.37
2023-05-20T23:33:26.559Z,15.32
2023-05-20T23:35:53.686Z,15.28
2023-05-20T23:38:21.761Z,15.22
2023-05-20T23:40:49.366Z,15.16
2023-05-20T23:43:16.499Z,15.11
2023-05-20T23:45:43.509Z,15.06
2023-05-20T23:48:13.737Z,15.00
2023-05-20T23:50:40.981Z,14.95
2023-05-20T23:53:08.025Z,14.88
2023-05-20T23:55:35.566Z,14.84
2023-05-20T23:58:02.794Z,14.81
